Time;durP1;ratioP1;P1;durP2;ratioP2;P2;SDS_P1;SDS_P2;PMS_P1;PMS_P2;Temp;Humidity;BMP_temperature;BMP_pressure;BME280_temperature;BME280_humidity;BME280_pressure;Samples;Min_cycle;Max_cycle;Signal;HPM_P1;HPM_P2
2023/04/06 07:03:23;;;;;;;30.92;12.18;;;;;;;3.73;60.42;96753.63;2083920;28;20580;-60
2023/04/06 07:04:25;;;;;;;30.42;14.63;;;;;;;3.88;59.70;96755.97;2075333;28;20194;-60
2023/04/06 07:05:27;;;;;;;37.97;13.05;;;;;;;3.90;59.42;96750.81;2075069;28;20196;-60
2023/04/06 07:06:29;;;;;;;28.73;13.20;;;;;;;3.99;59.25;96750.63;2073970;28;20721;-60
2023/04/06 07:07:34;;;;;;;26.60;11.15;;;;;;;4.16;59.17;96744.31;2065813;28;20205;-60
2023/04/06 07:08:36;;;;;;;28.20;11.73;;;;;;;4.02;59.37;96748.00;2068388;28;20193;-60
2023/04/06 07:09:40;;;;;;;30.33;11.98;;;;;;;4.37;58.67;96750.84;2069321;28;20209;-60
2023/04/06 07:10:41;;;;;;;41.45;11.25;;;;;;;4.84;57.73;96743.06;2071560;28;20211;-60
2023/04/06 07:11:43;;;;;;;28.02;11.10;;;;;;;4.89;57.47;96747.25;2070768;28;20686;-60
2023/04/06 07:12:44;;;;;;;31.63;12.00;;;;;;;5.14;57.23;96743.28;2068472;28;20236;-60
2023/04/06 07:13:46;;;;;;;37.05;11.95;;;;;;;5.35;55.88;96747.16;2070862;28;20620;-60
2023/04/06 07:14:47;;;;;;;34.72;12.68;;;;;;;5.68;55.22;96745.53;2072210;28;20202;-60
2023/04/06 07:15:49;;;;;;;37.17;11.60;;;;;;;5.23;55.66;96740.50;2068382;28;20248;-60
2023/04/06 07:16:51;;;;;;;33.85;13.23;;;;;;;5.29;56.68;96742.09;2067903;28;20232;-60
2023/04/06 07:17:54;;;;;;;39.00;12.50;;;;;;;5.27;56.32;96747.31;2066158;28;20680;-60
2023/04/06 07:18:56;;;;;;;40.42;14.38;;;;;;;5.66;55.52;96746.44;2064808;28;20240;-60
2023/04/06 07:19:57;;;;;;;42.47;11.52;;;;;;;6.03;55.03;96751.63;2066075;28;20239;-60
2023/04/06 07:20:59;;;;;;;25.90;12.60;;;;;;;6.33;54.13;96750.88;2066209;28;20657;-59
2023/04/06 07:22:00;;;;;;;29.77;10.90;;;;;;;6.75;53.46;96749.78;2066044;28;20219;-60
2023/04/06 07:23:02;;;;;;;29.52;11.85;;;;;;;7.18;52.22;96740.75;2070744;28;20283;-60
2023/04/06 07:24:04;;;;;;;35.28;11.07;;;;;;;6.96;52.30;96751.75;2071403;28;20206;-61
2023/04/06 07:25:06;;;;;;;36.30;13.30;;;;;;;7.24;52.33;96745.78;2070824;28;20256;-60
2023/04/06 07:26:07;;;;;;;51.90;13.18;;;;;;;7.54;51.31;96747.47;2068491;28;20245;-60
2023/04/06 07:27:09;;;;;;;30.30;12.50;;;;;;;7.68;51.22;96740.09;2067685;28;20257;-60
2023/04/06 07:28:11;;;;;;;34.45;12.45;;;;;;;7.60;50.87;96753.31;2067414;28;20202;-60
2023/04/06 07:29:12;;;;;;;45.40;11.30;;;;;;;7.97;50.79;96746.97;2068319;28;20195;-60
2023/04/06 07:30:14;;;;;;;52.33;11.90;;;;;;;7.88;50.60;96743.81;2070886;28;20608;-60
2023/04/06 07:31:16;;;;;;;48.10;12.10;;;;;;;7.38;51.30;96747.94;2066811;28;20204;-60
2023/04/06 07:32:17;;;;;;;38.13;12.23;;;;;;;7.59;51.82;96755.97;2063748;28;20242;-61
2023/04/06 07:33:19;;;;;;;47.92;13.43;;;;;;;8.15;50.33;96755.06;2067622;28;20193;-60
2023/04/06 07:34:21;;;;;;;32.05;12.27;;;;;;;7.82;50.67;96745.72;2067681;28;20620;-60
2023/04/06 07:35:24;;;;;;;31.42;12.35;;;;;;;8.27;50.43;96744.25;2068644;28;20232;-60
2023/04/06 07:36:25;;;;;;;29.15;11.15;;;;;;;8.69;49.14;96748.03;2070998;28;20247;-61
2023/04/06 07:37:27;;;;;;;49.13;11.48;;;;;;;8.78;49.13;96742.50;2070388;28;20771;-61
2023/04/06 07:38:28;;;;;;;50.55;11.68;;;;;;;9.08;48.25;96751.88;2068840;28;20195;-60
2023/04/06 07:39:30;;;;;;;53.63;13.43;;;;;;;8.80;48.67;96734.66;2070661;28;20205;-60
2023/04/06 07:40:32;;;;;;;36.38;11.82;;;;;;;8.89;48.91;96749.94;2072164;28;20687;-61
2023/04/06 07:41:34;;;;;;;38.05;11.75;;;;;;;9.05;48.88;96745.00;2067882;28;20202;-61
2023/04/06 07:42:35;;;;;;;45.72;12.77;;;;;;;9.22;48.45;96752.22;2068456;28;20210;-60
2023/04/06 07:43:38;;;;;;;58.92;11.65;;;;;;;9.47;47.67;96749.53;2066560;28;20302;-60
2023/04/06 07:44:39;;;;;;;34.95;11.30;;;;;;;9.62;47.21;96752.44;2065802;28;20228;-60
2023/04/06 07:45:41;;;;;;;46.08;13.07;;;;;;;9.36;48.01;96753.44;2067804;28;20194;-60
2023/04/06 07:46:42;;;;;;;35.22;12.13;;;;;;;9.61;47.63;96743.78;2067240;28;20240;-61
2023/04/06 07:47:44;;;;;;;33.03;10.23;;;;;;;9.71;47.31;96753.81;2068987;28;20230;-61
2023/04/06 07:48:45;;;;;;;47.33;11.63;;;;;;;9.82;46.90;96743.81;2072793;28;20205;-61
2023/04/06 07:49:47;;;;;;;24.40;9.48;;;;;;;9.84;47.01;96751.56;2069450;28;20219;-61
2023/04/06 07:50:49;;;;;;;28.23;10.50;;;;;;;9.88;46.73;96754.00;2067050;28;20208;-61
2023/04/06 07:51:50;;;;;;;38.70;11.13;;;;;;;10.20;45.91;96753.63;2069870;28;20889;-61
2023/04/06 07:52:51;;;;;;;35.53;11.27;;;;;;;10.16;45.69;96750.28;2073383;28;20206;-60
2023/04/06 07:53:53;;;;;;;31.48;10.82;;;;;;;10.41;45.84;96746.66;2069292;28;20233;-61
2023/04/06 07:54:54;;;;;;;35.10;10.20;;;;;;;10.13;45.90;96753.88;2067606;28;21013;-61
2023/04/06 07:55:57;;;;;;;25.27;10.52;;;;;;;10.90;44.95;96751.53;2070008;28;20197;-61
2023/04/06 07:56:59;;;;;;;27.95;9.55;;;;;;;10.92;44.64;96753.16;2066565;28;20724;-61
2023/04/06 07:58:00;;;;;;;29.73;9.60;;;;;;;10.93;44.47;96756.59;2063932;28;20209;-61
2023/04/06 07:59:02;;;;;;;30.63;10.45;;;;;;;11.50;43.79;96756.63;2063709;28;20199;-60
2023/04/06 08:00:05;;;;;;;32.20;9.13;;;;;;;11.75;43.12;96752.88;2066742;28;20684;-61
2023/04/06 08:01:07;;;;;;;31.80;10.05;;;;;;;11.55;43.13;96751.22;2067318;28;20252;-61
2023/04/06 08:02:08;;;;;;;36.90;10.95;;;;;;;11.15;44.36;96753.91;2066495;28;20654;-61
2023/04/06 08:03:10;;;;;;;23.10;8.60;;;;;;;11.38;44.18;96754.63;2068791;28;20756;-60
2023/04/06 08:04:12;;;;;;;24.77;9.88;;;;;;;11.49;43.81;96746.25;2083357;28;20381;-61
2023/04/06 08:05:14;;;;;;;26.63;8.65;;;;;;;11.02;44.57;96753.59;2085987;28;20283;-61
2023/04/06 08:06:16;;;;;;;39.10;9.25;;;;;;;10.83;45.05;96750.09;2070769;28;20258;-61
2023/04/06 08:07:18;;;;;;;32.60;8.30;;;;;;;11.31;44.29;96750.59;2066478;28;20594;-61
2023/04/06 08:08:21;;;;;;;26.33;8.18;;;;;;;11.60;43.97;96749.22;2067493;28;20542;-60
2023/04/06 08:09:22;;;;;;;38.33;8.48;;;;;;;11.38;43.52;96741.53;2070027;28;20267;-61
2023/04/06 08:10:24;;;;;;;22.13;7.63;;;;;;;10.82;44.57;96754.50;2069859;28;20305;-61
2023/04/06 08:11:26;;;;;;;26.15;8.82;;;;;;;10.93;44.77;96754.88;2082257;28;20205;-61
2023/04/06 08:12:28;;;;;;;37.33;9.25;;;;;;;10.90;45.00;96761.97;2081562;28;20226;-61
2023/04/06 08:13:29;;;;;;;21.13;8.82;;;;;;;10.64;45.88;96750.91;2067511;28;20198;-60
2023/04/06 08:14:31;;;;;;;23.73;7.72;;;;;;;10.46;45.64;96755.16;2079791;28;20232;-60
2023/04/06 08:15:32;;;;;;;28.08;7.70;;;;;;;10.58;45.58;96757.25;2081124;28;20201;-61
2023/04/06 08:16:34;;;;;;;19.52;7.95;;;;;;;10.74;45.94;96748.72;2062447;28;20213;-61
2023/04/06 08:17:35;;;;;;;17.55;6.68;;;;;;;10.75;45.17;96753.91;2061353;28;20228;-61
2023/04/06 08:18:37;;;;;;;24.45;7.55;;;;;;;11.06;44.00;96741.25;2066611;28;20351;-61
2023/04/06 08:19:38;;;;;;;27.52;6.50;;;;;;;11.25;43.25;96746.50;2064636;28;20201;-61
2023/04/06 08:20:40;;;;;;;15.77;7.40;;;;;;;11.07;43.46;96748.16;2062582;28;20206;-60
2023/04/06 08:21:42;;;;;;;23.17;6.97;;;;;;;11.09;43.14;96746.34;2061786;28;20209;-60
2023/04/06 08:22:44;;;;;;;13.02;6.70;;;;;;;11.30;42.41;96754.09;2062145;28;20228;-61
2023/04/06 08:23:46;;;;;;;34.85;8.07;;;;;;;10.76;41.67;96742.53;2061063;28;20222;-61
2023/04/06 08:24:47;;;;;;;18.63;6.13;;;;;;;11.01;40.72;96749.28;2058183;28;20727;-60
2023/04/06 08:25:48;;;;;;;52.90;8.18;;;;;;;11.22;40.38;96744.88;2059121;28;20205;-60
2023/04/06 08:26:51;;;;;;;18.80;7.18;;;;;;;10.81;40.44;96750.19;2059929;28;20310;-61
2023/04/06 08:27:52;;;;;;;24.65;7.20;;;;;;;10.79;39.72;96746.78;2064148;28;20207;-61
2023/04/06 08:28:54;;;;;;;15.60;6.88;;;;;;;11.13;38.83;96750.50;2063025;28;20234;-61
2023/04/06 08:29:55;;;;;;;18.17;6.63;;;;;;;11.44;39.73;96755.19;2065058;28;20203;-61
2023/04/06 08:30:57;;;;;;;16.20;6.22;;;;;;;11.35;38.99;96749.50;2065251;28;20654;-61
2023/04/06 08:31:58;;;;;;;30.25;10.52;;;;;;;11.21;38.40;96750.16;2061319;28;20736;-61
2023/04/06 08:33:00;;;;;;;31.02;10.50;;;;;;;11.16;38.35;96750.38;2064016;28;20199;-60
2023/04/06 08:34:04;;;;;;;13.07;6.82;;;;;;;10.97;38.11;96750.34;2064553;28;20764;-60
2023/04/06 08:35:06;;;;;;;9.65;5.47;;;;;;;10.45;37.74;96745.63;2057237;28;20611;-60
2023/04/06 08:36:12;;;;;;;17.30;6.88;;;;;;;10.39;38.41;96745.91;2059349;28;20198;-61
2023/04/06 08:37:14;;;;;;;12.50;6.15;;;;;;;10.52;38.31;96748.81;2061723;28;20218;-60
2023/04/06 08:38:16;;;;;;;11.15;6.13;;;;;;;11.07;38.20;96745.53;2058273;28;20226;-60
2023/04/06 08:39:23;;;;;;;10.85;5.80;;;;;;;11.46;37.87;96746.41;2062248;28;20210;-60
2023/04/06 08:40:25;;;;;;;11.73;6.35;;;;;;;11.38;38.13;96744.16;2065391;28;20822;-60
2023/04/06 08:41:27;;;;;;;16.73;5.82;;;;;;;11.72;37.56;96750.44;2063004;28;20711;-60
2023/04/06 08:42:32;;;;;;;12.52;5.68;;;;;;;10.79;38.06;96746.78;2079588;28;20563;-60
2023/04/06 08:43:48;;;;;;;10.95;5.70;;;;;;;10.61;38.84;96745.81;2080201;28;20199;-60
2023/04/06 08:44:52;;;;;;;10.30;6.60;;;;;;;10.79;38.76;96746.78;2063622;28;20723;-60
2023/04/06 08:45:53;;;;;;;13.82;5.50;;;;;;;11.16;38.33;96752.13;2062135;28;20206;-60
2023/04/06 08:46:55;;;;;;;16.92;6.32;;;;;;;11.12;38.92;96743.56;2063767;28;20222;-60
2023/04/06 08:47:58;;;;;;;14.27;6.32;;;;;;;11.07;39.15;96730.72;2063205;28;20238;-60
2023/04/06 08:49:06;;;;;;;16.02;6.70;;;;;;;10.85;38.46;96745.66;2058561;28;20207;-60
2023/04/06 08:50:11;;;;;;;15.88;7.03;;;;;;;10.50;38.83;96735.84;2059904;28;20218;-60
2023/04/06 08:51:12;;;;;;;12.88;7.40;;;;;;;10.94;38.63;96743.50;2061177;28;20627;-60
2023/04/06 08:52:18;;;;;;;11.52;6.20;;;;;;;11.10;37.81;96741.03;2062625;28;20309;-60
2023/04/06 08:53:20;;;;;;;15.30;6.70;;;;;;;11.02;37.56;96735.31;2063425;28;20202;-59
2023/04/06 08:54:25;;;;;;;16.88;7.07;;;;;;;11.24;38.39;96748.25;2061745;28;20195;-60
2023/04/06 08:55:26;;;;;;;12.95;6.45;;;;;;;10.99;38.03;96743.28;2062912;28;20563;-60
2023/04/06 08:56:28;;;;;;;24.35;7.43;;;;;;;10.90;38.02;96736.69;2063953;28;20206;-60
2023/04/06 08:57:31;;;;;;;16.85;6.40;;;;;;;10.80;38.49;96747.63;2065396;28;20202;-60
2023/04/06 08:58:37;;;;;;;19.52;7.70;;;;;;;11.04;38.57;96743.09;2062708;28;20212;-60
2023/04/06 08:59:40;;;;;;;10.90;5.53;;;;;;;11.26;38.30;96743.81;2063286;28;20602;-60
2023/04/06 09:00:42;;;;;;;25.13;7.10;;;;;;;11.08;37.63;96744.63;2064314;28;20304;-60
2023/04/06 09:01:46;;;;;;;19.88;6.80;;;;;;;11.04;38.13;96740.47;2062823;28;20277;-60
2023/04/06 09:02:49;;;;;;;17.13;6.50;;;;;;;11.47;37.90;96743.72;2061140;28;20237;-60
2023/04/06 09:03:55;;;;;;;13.18;6.18;;;;;;;10.51;38.29;96745.34;2059932;28;20220;-60
2023/04/06 09:04:57;;;;;;;10.52;5.95;;;;;;;10.44;38.35;96747.38;2063618;28;20718;-60
2023/04/06 09:05:59;;;;;;;12.98;6.50;;;;;;;10.43;38.29;96742.22;2060448;28;20206;-60
2023/04/06 09:07:01;;;;;;;13.05;6.65;;;;;;;10.48;38.57;96747.28;2060417;28;20234;-60
2023/04/06 09:08:02;;;;;;;11.07;6.85;;;;;;;10.65;37.70;96738.69;2064109;28;20198;-60
2023/04/06 09:09:04;;;;;;;11.13;5.50;;;;;;;10.45;38.00;96738.66;2065059;28;20581;-60
2023/04/06 09:10:06;;;;;;;13.30;5.75;;;;;;;11.01;38.63;96736.22;2064123;28;20214;-60
2023/04/06 09:11:08;;;;;;;11.35;6.57;;;;;;;11.51;37.78;96737.41;2061206;28;20219;-60
2023/04/06 09:12:12;;;;;;;15.52;6.28;;;;;;;11.66;37.56;96745.50;2061164;28;20229;-60
2023/04/06 09:13:13;;;;;;;12.13;6.85;;;;;;;10.75;37.38;96703.44;2061258;28;20645;-60
2023/04/06 09:14:16;;;;;;;12.30;6.03;;;;;;;10.57;38.41;96750.31;2061662;28;20195;-60
2023/04/06 09:15:21;;;;;;;11.35;6.85;;;;;;;10.51;38.09;96744.50;2060077;28;20665;-60
2023/04/06 09:16:25;;;;;;;9.98;6.15;;;;;;;10.50;37.13;96745.41;2058656;28;20199;-60
2023/04/06 09:17:29;;;;;;;10.88;5.95;;;;;;;10.51;37.69;96741.91;2061606;28;20209;-61
2023/04/06 09:18:32;;;;;;;12.20;6.10;;;;;;;10.48;37.13;96748.09;2060296;28;20206;-60
2023/04/06 09:19:33;;;;;;;11.40;7.05;;;;;;;10.60;37.78;96750.19;2060245;28;20234;-60
2023/04/06 09:20:35;;;;;;;12.85;7.20;;;;;;;10.33;38.70;96746.94;2061852;28;20206;-60
2023/04/06 09:21:37;;;;;;;11.45;6.70;;;;;;;10.19;39.29;96749.31;2058994;28;20202;-60
2023/04/06 09:22:40;;;;;;;17.90;7.40;;;;;;;10.13;38.97;96742.56;2061308;28;20201;-60
2023/04/06 09:23:41;;;;;;;14.13;6.75;;;;;;;9.89;38.85;96744.41;2061124;28;20199;-61
2023/04/06 09:24:48;;;;;;;19.92;8.18;;;;;;;10.64;36.91;96753.53;2063475;28;20224;-62
2023/04/06 09:25:49;;;;;;;17.63;8.02;;;;;;;10.19;37.92;96746.69;2062121;28;20489;-62
2023/04/06 09:26:51;;;;;;;17.63;7.70;;;;;;;9.98;37.45;96749.28;2062244;28;20877;-63
2023/04/06 09:28:00;;;;;;;15.40;7.93;;;;;;;10.67;37.07;96735.09;2063120;28;20560;-62
2023/04/06 09:29:03;;;;;;;12.90;8.27;;;;;;;10.76;37.02;96731.25;2060136;28;20560;-62
2023/04/06 09:30:13;;;;;;;16.58;8.10;;;;;;;10.67;36.55;96742.09;2061442;28;20205;-63
2023/04/06 09:31:21;;;;;;;14.02;7.05;;;;;;;10.89;36.22;96748.09;2061238;28;20194;-62
2023/04/06 09:32:23;;;;;;;18.00;8.68;;;;;;;11.21;36.27;96753.63;2062157;28;20226;-62
2023/04/06 09:33:24;;;;;;;15.13;7.32;;;;;;;11.21;35.56;96737.06;2065351;28;20317;-62
2023/04/06 09:34:26;;;;;;;13.60;8.25;;;;;;;12.11;35.43;96741.56;2064414;28;20198;-62
2023/04/06 09:35:29;;;;;;;15.43;7.97;;;;;;;12.81;35.68;96738.94;2066038;28;20809;-62
2023/04/06 09:36:38;;;;;;;14.77;8.27;;;;;;;13.36;34.89;96739.56;2065335;28;20202;-63
2023/04/06 09:37:39;;;;;;;16.75;7.43;;;;;;;12.38;34.99;96728.06;2064753;28;20245;-62
2023/04/06 09:39:05;;;;;;;14.40;7.30;;;;;;;11.97;35.49;96736.19;2064460;28;20295;-63
2023/04/06 09:40:07;;;;;;;16.30;9.05;;;;;;;11.23;36.07;96741.31;2063464;28;20195;-62
2023/04/06 09:41:09;;;;;;;15.95;9.18;;;;;;;11.20;36.32;96738.84;2061055;28;20211;-62
2023/04/06 09:42:32;;;;;;;15.00;9.27;;;;;;;11.12;36.68;96740.94;2056878;28;20219;-62
2023/04/06 09:43:33;;;;;;;18.40;10.05;;;;;;;10.21;36.41;96750.06;2058202;28;20687;-62
2023/04/06 09:44:35;;;;;;;16.33;10.50;;;;;;;9.57;36.76;96731.78;2060206;28;20215;-62
2023/04/06 09:45:37;;;;;;;19.50;10.77;;;;;;;9.27;37.45;96739.84;2064949;28;20207;-62
2023/04/06 09:46:40;;;;;;;18.45;11.55;;;;;;;9.42;37.34;96741.03;2064706;28;20197;-62
2023/04/06 09:48:00;;;;;;;22.95;12.00;;;;;;;9.60;37.57;96723.81;2063974;28;20229;-62
2023/04/06 09:49:03;;;;;;;17.95;9.85;;;;;;;9.44;38.32;96746.19;2064428;28;20198;-61
2023/04/06 09:50:05;;;;;;;17.33;9.93;;;;;;;10.34;37.73;96743.44;2063825;28;20740;-62
2023/04/06 09:51:07;;;;;;;20.60;10.27;;;;;;;10.97;36.91;96744.25;2062643;28;20202;-62
2023/04/06 09:52:12;;;;;;;17.27;9.68;;;;;;;12.21;36.19;96731.50;2061408;28;20732;-62
2023/04/06 09:53:14;;;;;;;18.45;9.35;;;;;;;11.43;36.45;96740.41;2060090;28;20424;-62
2023/04/06 09:54:19;;;;;;;16.70;8.60;;;;;;;12.97;35.47;96727.66;2060637;28;20207;-62
2023/04/06 09:55:30;;;;;;;19.35;8.82;;;;;;;13.07;34.46;96745.41;2060005;28;20235;-62
2023/04/06 09:57:03;;;;;;;20.63;9.07;;;;;;;12.70;34.61;96736.88;2064946;28;20190;-62
2023/04/06 09:58:06;;;;;;;15.10;9.30;;;;;;;11.97;35.90;96738.81;2061133;28;20281;-63
2023/04/06 09:59:14;;;;;;;15.10;9.88;;;;;;;11.93;36.04;96733.69;2063481;28;20222;-62
2023/04/06 10:00:20;;;;;;;18.10;9.40;;;;;;;11.98;35.45;96735.25;2061733;28;20253;-62
2023/04/06 10:01:26;;;;;;;19.60;8.65;;;;;;;12.37;34.82;96739.44;2065223;28;20679;-62
2023/04/06 10:03:04;;;;;;;14.02;8.43;;;;;;;12.47;34.39;96730.19;2063428;28;20227;-63
2023/04/06 10:04:17;;;;;;;17.80;8.50;;;;;;;12.65;33.46;96741.50;2063399;28;20197;-62
2023/04/06 10:05:21;;;;;;;22.73;8.02;;;;;;;12.10;34.72;96739.91;2061233;28;20299;-62
2023/04/06 10:06:27;;;;;;;15.10;7.80;;;;;;;12.34;35.28;96734.34;2060875;28;20218;-62
2023/04/06 10:07:29;;;;;;;13.95;8.80;;;;;;;12.36;34.14;96730.72;2058075;28;20218;-62
2023/04/06 10:08:35;;;;;;;18.90;8.02;;;;;;;12.43;34.68;96735.66;2061677;28;20869;-63
2023/04/06 10:09:38;;;;;;;14.13;8.25;;;;;;;12.32;33.94;96728.38;2060703;28;20331;-62
2023/04/06 10:10:39;;;;;;;12.02;8.57;;;;;;;12.35;33.67;96736.06;2060364;28;20199;-62
2023/04/06 10:11:41;;;;;;;13.90;7.88;;;;;;;12.47;33.63;96740.69;2059432;28;20240;-60
2023/04/06 10:12:44;;;;;;;12.68;8.50;;;;;;;12.87;33.61;96730.75;2061640;28;20287;-60
2023/04/06 10:13:48;;;;;;;17.67;8.52;;;;;;;12.76;33.07;96733.09;2063140;28;20230;-60
2023/04/06 10:14:50;;;;;;;17.10;8.52;;;;;;;12.70;33.12;96734.25;2062152;28;20189;-61
2023/04/06 10:15:52;;;;;;;14.25;8.73;;;;;;;12.72;32.94;96742.03;2061809;28;20204;-60
2023/04/06 10:16:54;;;;;;;14.32;8.65;;;;;;;12.19;33.18;96723.72;2064169;28;20219;-60
2023/04/06 10:18:00;;;;;;;17.38;9.43;;;;;;;12.55;33.04;96730.63;2061094;28;20205;-60
2023/04/06 10:19:13;;;;;;;14.45;8.75;;;;;;;12.38;33.52;96728.06;2060863;28;20202;-60
2023/04/06 10:20:22;;;;;;;13.27;8.23;;;;;;;12.44;33.64;96732.13;2061424;28;20710;-60
2023/04/06 10:21:27;;;;;;;11.63;8.02;;;;;;;12.48;32.96;96731.03;2072611;28;20230;-60
2023/04/06 10:22:59;;;;;;;14.93;8.18;;;;;;;13.14;32.95;96735.47;2075505;28;20238;-61
2023/04/06 10:24:06;;;;;;;18.35;7.88;;;;;;;12.64;33.29;96723.25;2060916;28;20265;-60
2023/04/06 10:25:09;;;;;;;11.57;7.68;;;;;;;13.02;33.68;96731.72;2062289;28;20263;-60
2023/04/06 10:26:16;;;;;;;10.73;6.85;;;;;;;12.32;33.86;96734.44;2063083;28;20234;-60
2023/04/06 10:27:27;;;;;;;12.40;7.88;;;;;;;12.39;33.17;96734.97;2061975;28;20242;-60
2023/04/06 10:28:35;;;;;;;14.30;7.90;;;;;;;12.62;33.41;96727.72;2064519;28;20712;-60
2023/04/06 10:29:45;;;;;;;19.40;7.28;;;;;;;14.16;33.34;96731.66;2063589;28;20615;-60
2023/04/06 10:30:46;;;;;;;12.32;7.70;;;;;;;14.20;32.21;96734.00;2063102;28;20255;-60
2023/04/06 10:31:48;;;;;;;13.55;8.07;;;;;;;14.15;31.21;96727.31;2061654;28;20254;-61
2023/04/06 10:32:50;;;;;;;11.27;6.95;;;;;;;14.98;30.83;96721.56;2060855;28;20617;-62
2023/04/06 10:33:59;;;;;;;13.15;8.93;;;;;;;14.75;30.83;96720.34;2059696;28;20235;-61
2023/04/06 10:35:14;;;;;;;12.35;7.15;;;;;;;15.39;31.10;96722.56;2059357;28;20206;-61
2023/04/06 10:36:26;;;;;;;12.00;7.22;;;;;;;14.55;30.92;96727.63;2058657;28;20784;-61
2023/04/06 10:37:27;;;;;;;16.35;8.05;;;;;;;14.57;31.56;96732.78;2065326;28;20217;-61
2023/04/06 10:38:39;;;;;;;14.70;7.80;;;;;;;15.18;31.98;96726.47;2060291;28;20237;-61
2023/04/06 10:39:55;;;;;;;13.00;7.55;;;;;;;14.84;31.01;96732.94;2060617;28;20229;-61
2023/04/06 10:41:04;;;;;;;13.88;7.55;;;;;;;14.58;31.73;96718.72;2061494;28;20234;-61
2023/04/06 10:42:06;;;;;;;11.15;7.40;;;;;;;15.22;30.29;96726.28;2060803;28;20305;-61
2023/04/06 10:43:12;;;;;;;14.02;7.45;;;;;;;15.98;30.58;96725.00;2062986;28;20297;-61
2023/04/06 10:44:24;;;;;;;9.75;6.70;;;;;;;16.54;30.60;96718.69;2063242;28;20286;-60
2023/04/06 10:45:30;;;;;;;15.40;7.88;;;;;;;15.64;29.81;96725.34;2059687;28;20217;-60
2023/04/06 10:46:33;;;;;;;13.35;7.93;;;;;;;16.77;28.75;96723.25;2059725;28;20576;-60
2023/04/06 10:47:41;;;;;;;14.98;7.88;;;;;;;15.23;29.82;96723.53;2060022;28;20195;-60
2023/04/06 10:48:46;;;;;;;11.02;7.78;;;;;;;15.71;30.09;96723.16;2062693;28;20293;-60
2023/04/06 10:49:48;;;;;;;8.65;6.68;;;;;;;16.79;28.07;96723.16;2062831;28;20201;-60
2023/04/06 10:50:51;;;;;;;10.90;6.85;;;;;;;15.89;28.76;96720.34;2063083;28;20209;-60
2023/04/06 10:51:54;;;;;;;12.82;7.47;;;;;;;16.44;28.46;96715.81;2063139;28;20313;-60
2023/04/06 10:53:01;;;;;;;9.88;6.80;;;;;;;16.07;28.54;96724.38;2061389;28;20654;-60
2023/04/06 10:54:05;;;;;;;15.73;7.13;;;;;;;15.56;29.80;96722.34;2061571;28;20222;-60
2023/04/06 10:55:10;;;;;;;10.45;7.00;;;;;;;16.23;29.18;96705.78;2063572;28;20206;-60
2023/04/06 10:56:15;;;;;;;10.15;6.93;;;;;;;17.67;28.88;96713.53;2062895;28;20202;-60
2023/04/06 10:57:27;;;;;;;12.77;7.70;;;;;;;17.12;28.95;96704.16;2064529;28;20587;-60
2023/04/06 10:58:30;;;;;;;13.38;7.03;;;;;;;16.59;28.63;96698.13;2062674;28;20198;-60
2023/04/06 10:59:32;;;;;;;13.30;6.90;;;;;;;17.26;29.56;96703.19;2060560;28;20248;-60
2023/04/06 11:00:34;;;;;;;13.52;7.40;;;;;;;18.29;28.47;96701.97;2058917;28;20209;-60
2023/04/06 11:01:50;;;;;;;10.40;6.40;;;;;;;19.04;27.93;96702.50;2065285;28;20224;-60
2023/04/06 11:02:59;;;;;;;13.40;6.60;;;;;;;19.03;27.01;96706.94;2070958;28;20242;-60
2023/04/06 11:04:00;;;;;;;15.10;7.43;;;;;;;18.05;27.38;96709.91;2063265;28;20193;-61
2023/04/06 11:05:02;;;;;;;13.45;6.60;;;;;;;17.18;27.63;96707.31;2063496;28;20398;-60
2023/04/06 11:06:04;;;;;;;15.57;7.07;;;;;;;14.50;29.88;96711.25;2062734;28;20304;-60
2023/04/06 11:07:05;;;;;;;9.77;5.90;;;;;;;13.92;31.06;96715.53;2061105;28;20236;-60
2023/04/06 11:08:07;;;;;;;16.98;7.38;;;;;;;15.44;29.72;96710.84;2065562;28;20202;-60
2023/04/06 11:09:08;;;;;;;9.68;6.32;;;;;;;16.98;28.63;96707.75;2063245;28;20194;-61
2023/04/06 11:10:10;;;;;;;8.70;6.53;;;;;;;16.13;27.93;96707.34;2058284;28;20257;-61
2023/04/06 11:11:20;;;;;;;10.27;5.85;;;;;;;13.57;30.49;96707.84;2060549;28;20197;-61
2023/04/06 11:12:26;;;;;;;11.75;6.80;;;;;;;13.18;32.16;96710.78;2057958;28;20823;-61
2023/04/06 11:13:44;;;;;;;10.57;5.97;;;;;;;15.34;29.89;96688.69;2057722;28;20298;-61
2023/04/06 11:15:04;;;;;;;11.57;6.70;;;;;;;14.43;30.64;96689.78;2059337;28;20875;-61
2023/04/06 11:16:06;;;;;;;9.00;5.63;;;;;;;16.87;29.14;96699.72;2062364;28;20209;-61
2023/04/06 11:17:07;;;;;;;11.00;6.47;;;;;;;16.45;28.59;96699.91;2062129;28;20228;-61
2023/04/06 11:18:11;;;;;;;12.10;6.15;;;;;;;15.68;28.83;96700.53;2065475;28;20233;-64
2023/04/06 11:19:12;;;;;;;14.63;6.80;;;;;;;14.95;30.46;96698.13;2064711;28;20195;-62
2023/04/06 11:20:15;;;;;;;14.45;5.70;;;;;;;15.72;29.87;96681.88;2064016;28;20209;-62
2023/04/06 11:21:17;;;;;;;11.80;5.60;;;;;;;14.17;29.52;96691.31;2061975;28;20595;-62
2023/04/06 11:22:19;;;;;;;8.48;5.45;;;;;;;13.93;30.30;96696.19;2061025;28;20225;-62
2023/04/06 11:23:27;;;;;;;9.40;6.15;;;;;;;14.46;29.89;96689.59;2060153;28;20199;-62
2023/04/06 11:24:28;;;;;;;12.35;5.97;;;;;;;13.99;29.41;96690.59;2058440;28;20257;-63
2023/04/06 11:25:32;;;;;;;11.55;5.82;;;;;;;13.55;30.30;96689.56;2057288;28;20886;-62
2023/04/06 11:26:53;;;;;;;8.63;5.10;;;;;;;13.61;30.89;96693.63;2056675;28;20202;-62
2023/04/06 11:27:55;;;;;;;9.43;6.18;;;;;;;14.42;29.93;96682.81;2058355;28;20262;-62
2023/04/06 11:28:57;;;;;;;15.30;7.05;;;;;;;14.18;31.31;96688.59;2052575;28;20202;-63
2023/04/06 11:30:00;;;;;;;11.30;6.28;;;;;;;14.77;30.93;96658.03;2057865;28;20503;-62
2023/04/06 11:31:01;;;;;;;8.90;5.75;;;;;;;15.41;30.40;96687.31;2062758;28;20714;-62
2023/04/06 11:32:06;;;;;;;13.40;6.40;;;;;;;15.17;29.98;96689.72;2061172;28;20222;-62
2023/04/06 11:33:07;;;;;;;13.32;6.53;;;;;;;15.18;30.10;96684.38;2065439;28;20284;-63
2023/04/06 11:34:11;;;;;;;14.20;6.47;;;;;;;13.73;30.83;96682.44;2062930;28;20201;-62
2023/04/06 11:35:24;;;;;;;14.15;6.78;;;;;;;15.48;30.88;96686.00;2062625;28;20207;-62
2023/04/06 11:36:29;;;;;;;10.02;5.78;;;;;;;15.75;29.03;96672.00;2061077;28;20199;-62
2023/04/06 11:37:32;;;;;;;12.45;6.50;;;;;;;15.34;29.40;96683.41;2059952;28;20225;-63
2023/04/06 11:38:38;;;;;;;12.13;7.22;;;;;;;15.76;29.54;96678.13;2060474;28;20203;-62
2023/04/06 11:39:42;;;;;;;14.10;6.40;;;;;;;15.90;29.37;96674.63;2059022;28;20201;-62
2023/04/06 11:40:43;;;;;;;13.32;7.28;;;;;;;16.14;29.17;96677.44;2060761;28;20198;-63
2023/04/06 11:41:52;;;;;;;11.63;6.30;;;;;;;16.45;29.31;96670.09;2064217;28;20653;-62
2023/04/06 11:42:55;;;;;;;14.02;6.57;;;;;;;16.37;28.97;96670.59;2060155;28;20210;-63
2023/04/06 11:43:56;;;;;;;13.10;6.95;;;;;;;17.06;28.67;96674.72;2062663;28;20202;-62
2023/04/06 11:44:59;;;;;;;10.70;5.70;;;;;;;16.43;28.97;96666.69;2062978;28;20199;-62
2023/04/06 11:46:02;;;;;;;9.15;5.50;;;;;;;16.53;29.28;96661.66;2064467;28;20190;-63
2023/04/06 11:47:09;;;;;;;11.02;5.45;;;;;;;16.04;28.85;96671.91;2061243;28;20223;-62
2023/04/06 11:48:21;;;;;;;6.93;5.07;;;;;;;14.94;30.23;96672.75;2061173;28;20195;-63
2023/04/06 11:49:31;;;;;;;11.65;7.03;;;;;;;14.95;30.79;96667.41;2062273;28;20199;-63
2023/04/06 11:50:36;;;;;;;7.88;5.10;;;;;;;15.21;30.85;96662.31;2059757;28;20199;-63
2023/04/06 11:51:37;;;;;;;7.80;5.75;;;;;;;15.30;29.92;96674.00;2060727;28;20203;-63
2023/04/06 11:52:41;;;;;;;7.20;5.38;;;;;;;15.43;30.25;96674.94;2059732;28;20293;-62
2023/04/06 11:53:46;;;;;;;11.90;6.75;;;;;;;14.33;30.24;96665.00;2060968;28;20198;-62
2023/04/06 11:54:48;;;;;;;8.48;5.13;;;;;;;14.68;30.45;96667.31;2063216;28;20342;-62
2023/04/06 11:55:50;;;;;;;15.57;8.00;;;;;;;14.85;30.83;96661.03;2064521;28;20802;-60
2023/04/06 11:56:52;;;;;;;11.23;5.68;;;;;;;13.77;31.07;96655.09;2065649;28;20690;-60
2023/04/06 11:57:53;;;;;;;10.45;5.80;;;;;;;13.47;30.95;96661.16;2065292;28;20233;-61
2023/04/06 11:58:59;;;;;;;9.70;5.55;;;;;;;14.19;30.44;96663.19;2061517;28;20424;-60
2023/04/06 12:00:01;;;;;;;9.90;5.53;;;;;;;14.23;30.38;96663.84;2065561;28;20289;-61
2023/04/06 12:01:04;;;;;;;8.35;5.03;;;;;;;14.93;30.12;96655.28;2063508;28;20286;-61
2023/04/06 12:02:05;;;;;;;10.82;5.75;;;;;;;14.66;30.27;96619.25;2063041;28;20332;-60